DAL2843 KIND-KMEM
Flight info
| Callsign | DAL2843 |
|---|---|
| Flight time | N/A |
| Altitude | 34000 |
| Route | OOM5 PXV BLUZZ5 |
| Aircraft | A21N/M-V/N |
Departure
| Time | 2026-05-06 00:37 |
|---|---|
| Airport | Indianapolis International Airport (KIND) |
Arrival
| Time | N/A |
|---|---|
| Airport | Memphis International Airport (KMEM) |
| Time | Latitude | Longitude | Altitude | Speed | Heading |
|---|---|---|---|---|---|
| 2026-05-06 00:12 | 39.71722 | -86.29669 | 793 ft | 0 kts | 292° |
| 2026-05-06 00:27 | 39.71721 | -86.29667 | 793 ft | 0 kts | 292° |
| 2026-05-06 00:27 | 39.71720 | -86.29661 | 793 ft | 1 kts | 292° |
| 2026-05-06 00:28 | 39.71719 | -86.29658 | 793 ft | 1 kts | 292° |
| 2026-05-06 00:28 | 39.71717 | -86.29651 | 793 ft | 1 kts | 294° |
| 2026-05-06 00:28 | 39.71712 | -86.29637 | 792 ft | 2 kts | 293° |
| 2026-05-06 00:28 | 39.71705 | -86.29616 | 792 ft | 2 kts | 293° |
| 2026-05-06 00:29 | 39.71696 | -86.29598 | 792 ft | 2 kts | 343° |
| 2026-05-06 00:29 | 39.71687 | -86.29599 | 792 ft | 0 kts | 44° |
| 2026-05-06 00:31 | 39.71690 | -86.29595 | 792 ft | 4 kts | 44° |
| 2026-05-06 00:31 | 39.71729 | -86.29551 | 792 ft | 9 kts | 41° |
| 2026-05-06 00:31 | 39.71782 | -86.29491 | 792 ft | 11 kts | 39° |
| 2026-05-06 00:31 | 39.71837 | -86.29417 | 792 ft | 10 kts | 73° |
| 2026-05-06 00:32 | 39.71821 | -86.29361 | 792 ft | 9 kts | 130° |
| 2026-05-06 00:32 | 39.71723 | -86.29249 | 791 ft | 22 kts | 141° |
| 2026-05-06 00:32 | 39.71605 | -86.29121 | 790 ft | 15 kts | 142° |
| 2026-05-06 00:32 | 39.71541 | -86.29109 | 790 ft | 6 kts | 222° |
| 2026-05-06 00:33 | 39.71427 | -86.29280 | 790 ft | 29 kts | 229° |
| 2026-05-06 00:33 | 39.71318 | -86.29403 | 788 ft | 11 kts | 182° |
| 2026-05-06 00:33 | 39.71234 | -86.29390 | 788 ft | 15 kts | 173° |
| 2026-05-06 00:33 | 39.71058 | -86.29431 | 789 ft | 27 kts | 219° |
| 2026-05-06 00:34 | 39.70923 | -86.29597 | 791 ft | 26 kts | 224° |
| 2026-05-06 00:34 | 39.70792 | -86.29762 | 793 ft | 27 kts | 224° |
| 2026-05-06 00:34 | 39.70661 | -86.29932 | 795 ft | 27 kts | 223° |
| 2026-05-06 00:34 | 39.70519 | -86.30109 | 793 ft | 29 kts | 224° |
| 2026-05-06 00:35 | 39.70347 | -86.30333 | 791 ft | 40 kts | 225° |
| 2026-05-06 00:35 | 39.70189 | -86.30533 | 793 ft | 22 kts | 223° |
| 2026-05-06 00:35 | 39.70121 | -86.30550 | 794 ft | 5 kts | 136° |
| 2026-05-06 00:35 | 39.70089 | -86.30508 | 794 ft | 11 kts | 134° |
| 2026-05-06 00:36 | 39.70060 | -86.30401 | 795 ft | 10 kts | 68° |
| 2026-05-06 00:36 | 39.70078 | -86.30370 | 794 ft | 1 kts | 46° |
| 2026-05-06 00:36 | 39.70096 | -86.30349 | 793 ft | 9 kts | 43° |
| 2026-05-06 00:36 | 39.70357 | -86.30019 | 793 ft | 98 kts | 44° |
| 2026-05-06 00:37 | 39.71057 | -86.29129 | 790 ft | 179 kts | 44° |
| 2026-05-06 00:37 | 39.72032 | -86.27927 | 1305 ft | 203 kts | 43° |
| 2026-05-06 00:37 | 39.73135 | -86.26594 | 1962 ft | 231 kts | 43° |
| 2026-05-06 00:37 | 39.74288 | -86.25146 | 2618 ft | 220 kts | 44° |
| 2026-05-06 00:38 | 39.75319 | -86.23732 | 2789 ft | 214 kts | 54° |
| 2026-05-06 00:38 | 39.75587 | -86.23210 | 2814 ft | 213 kts | 59° |
| 2026-05-06 00:39 | 39.78141 | -86.15673 | 3932 ft | 221 kts | 77° |
| 2026-05-06 00:39 | 39.78137 | -86.13557 | 4598 ft | 253 kts | 105° |
| 2026-05-06 00:39 | 39.77269 | -86.11379 | 4952 ft | 297 kts | 130° |
| 2026-05-06 00:40 | 39.75544 | -86.09577 | 5020 ft | 343 kts | 153° |
| 2026-05-06 00:40 | 39.73213 | -86.08721 | 5524 ft | 355 kts | 176° |
| 2026-05-06 00:40 | 39.70753 | -86.08867 | 6750 ft | 351 kts | 188° |
| 2026-05-06 00:40 | 39.68389 | -86.09442 | 8296 ft | 341 kts | 193° |
| 2026-05-06 00:41 | 39.66146 | -86.10342 | 9833 ft | 334 kts | 202° |
| 2026-05-06 00:41 | 39.64078 | -86.11639 | 11333 ft | 327 kts | 208° |
| 2026-05-06 00:41 | 39.62112 | -86.13103 | 12620 ft | 328 kts | 211° |
| 2026-05-06 00:41 | 39.60178 | -86.14721 | 13704 ft | 333 kts | 214° |
| 2026-05-06 00:42 | 39.58209 | -86.16335 | 14797 ft | 337 kts | 211° |
| 2026-05-06 00:42 | 39.56161 | -86.17851 | 15816 ft | 341 kts | 210° |
| 2026-05-06 00:42 | 39.54076 | -86.19373 | 16799 ft | 347 kts | 210° |
| 2026-05-06 00:42 | 39.51960 | -86.20917 | 17727 ft | 352 kts | 210° |
| 2026-05-06 00:43 | 39.49812 | -86.22484 | 18607 ft | 357 kts | 210° |
| 2026-05-06 00:43 | 39.47633 | -86.24074 | 19462 ft | 362 kts | 210° |
| 2026-05-06 00:43 | 39.45426 | -86.25692 | 20287 ft | 367 kts | 211° |
| 2026-05-06 00:43 | 39.43308 | -86.27502 | 20972 ft | 375 kts | 217° |
| 2026-05-06 00:44 | 39.41208 | -86.29641 | 21326 ft | 392 kts | 219° |
| 2026-05-06 00:44 | 39.39053 | -86.31904 | 21772 ft | 405 kts | 219° |
| 2026-05-06 00:44 | 39.36847 | -86.34225 | 22399 ft | 411 kts | 219° |
| 2026-05-06 00:44 | 39.34618 | -86.36578 | 23054 ft | 416 kts | 220° |
| 2026-05-06 00:45 | 39.32494 | -86.39148 | 23682 ft | 420 kts | 226° |
| 2026-05-06 00:45 | 39.30482 | -86.41912 | 24284 ft | 424 kts | 227° |
| 2026-05-06 00:45 | 39.28407 | -86.44650 | 24872 ft | 428 kts | 224° |
| 2026-05-06 00:45 | 39.26216 | -86.47281 | 25431 ft | 432 kts | 223° |
| 2026-05-06 00:46 | 39.23983 | -86.49904 | 25970 ft | 436 kts | 222° |
| 2026-05-06 00:46 | 39.21732 | -86.52547 | 26486 ft | 439 kts | 222° |
| 2026-05-06 00:46 | 39.19458 | -86.55217 | 26980 ft | 443 kts | 223° |
| 2026-05-06 00:46 | 39.17173 | -86.57900 | 27441 ft | 446 kts | 223° |
| 2026-05-06 00:47 | 39.14815 | -86.60531 | 27875 ft | 450 kts | 217° |
| 2026-05-06 00:47 | 39.12156 | -86.62678 | 28341 ft | 452 kts | 208° |
| 2026-05-06 00:47 | 39.09340 | -86.64522 | 28743 ft | 456 kts | 205° |
| 2026-05-06 00:47 | 39.06487 | -86.66221 | 29122 ft | 459 kts | 205° |
| 2026-05-06 00:48 | 39.03532 | -86.67951 | 29514 ft | 462 kts | 205° |
| 2026-05-06 00:48 | 39.00627 | -86.69651 | 29885 ft | 465 kts | 205° |
| 2026-05-06 00:48 | 38.97668 | -86.71382 | 30255 ft | 468 kts | 205° |
| 2026-05-06 00:48 | 38.94701 | -86.73118 | 30697 ft | 468 kts | 205° |
| 2026-05-06 00:49 | 38.91742 | -86.74850 | 31232 ft | 466 kts | 205° |
| 2026-05-06 00:49 | 38.88794 | -86.76577 | 31736 ft | 465 kts | 205° |
| 2026-05-06 00:49 | 38.85858 | -86.78296 | 32198 ft | 464 kts | 205° |
| 2026-05-06 00:49 | 38.82926 | -86.80015 | 32651 ft | 463 kts | 205° |
| 2026-05-06 00:50 | 38.79999 | -86.81730 | 33080 ft | 462 kts | 205° |
| 2026-05-06 00:50 | 38.77078 | -86.83443 | 33492 ft | 461 kts | 205° |
| 2026-05-06 00:50 | 38.74185 | -86.85139 | 33864 ft | 461 kts | 205° |
| 2026-05-06 00:50 | 38.71262 | -86.86855 | 33991 ft | 461 kts | 205° |
| 2026-05-06 00:51 | 38.68355 | -86.88579 | 34001 ft | 460 kts | 205° |
| 2026-05-06 00:51 | 38.62553 | -86.92054 | 33998 ft | 461 kts | 205° |
| 2026-05-06 00:52 | 38.56736 | -86.95520 | 34000 ft | 461 kts | 205° |
| 2026-05-06 00:52 | 38.50913 | -86.98943 | 34001 ft | 461 kts | 205° |
| 2026-05-06 00:53 | 38.45657 | -87.03509 | 34003 ft | 459 kts | 225° |
| 2026-05-06 00:53 | 38.41409 | -87.09611 | 34000 ft | 460 kts | 230° |
| 2026-05-06 00:54 | 38.37327 | -87.15894 | 34001 ft | 460 kts | 231° |
| 2026-05-06 00:54 | 38.33317 | -87.22252 | 34000 ft | 460 kts | 233° |
| 2026-05-06 00:55 | 38.29319 | -87.28538 | 34001 ft | 460 kts | 227° |
| 2026-05-06 00:55 | 38.24894 | -87.34420 | 33999 ft | 460 kts | 226° |
| 2026-05-06 00:56 | 38.20294 | -87.40088 | 33997 ft | 460 kts | 223° |
| 2026-05-06 00:56 | 38.15610 | -87.45643 | 33996 ft | 460 kts | 224° |
| 2026-05-06 00:57 | 38.11076 | -87.51383 | 33994 ft | 460 kts | 226° |
| 2026-05-06 00:57 | 38.07468 | -87.56344 | 33994 ft | 460 kts | 227° |
| 2026-05-06 00:58 | 38.01775 | -87.62459 | 34028 ft | 460 kts | 221° |
| 2026-05-06 00:58 | 37.97821 | -87.67051 | 34004 ft | 460 kts | 225° |
| 2026-05-06 00:59 | 37.93350 | -87.72855 | 34000 ft | 460 kts | 227° |
| 2026-05-06 00:59 | 37.88457 | -87.78025 | 34002 ft | 460 kts | 211° |
| 2026-05-06 01:00 | 37.82889 | -87.81914 | 33998 ft | 460 kts | 207° |
| 2026-05-06 01:00 | 37.77182 | -87.85601 | 34001 ft | 460 kts | 206° |
| 2026-05-06 01:01 | 37.71440 | -87.89209 | 34001 ft | 460 kts | 206° |
| 2026-05-06 01:01 | 37.65696 | -87.92818 | 34001 ft | 461 kts | 206° |
| 2026-05-06 01:02 | 37.59983 | -87.96409 | 33999 ft | 461 kts | 207° |
| 2026-05-06 01:02 | 37.54248 | -88.00017 | 34001 ft | 460 kts | 207° |
| 2026-05-06 01:03 | 37.48503 | -88.03633 | 34001 ft | 461 kts | 207° |
| 2026-05-06 01:03 | 37.42772 | -88.07242 | 34000 ft | 461 kts | 207° |
| 2026-05-06 01:04 | 37.37037 | -88.10840 | 34001 ft | 461 kts | 206° |
| 2026-05-06 01:04 | 37.31257 | -88.14338 | 34001 ft | 461 kts | 206° |
| 2026-05-06 01:05 | 37.25457 | -88.17798 | 33998 ft | 461 kts | 205° |
| 2026-05-06 01:05 | 37.19669 | -88.21143 | 33999 ft | 461 kts | 205° |
| 2026-05-06 01:06 | 37.13845 | -88.24506 | 34000 ft | 461 kts | 205° |
| 2026-05-06 01:06 | 37.08018 | -88.27873 | 34001 ft | 461 kts | 205° |
| 2026-05-06 01:07 | 37.02194 | -88.31241 | 34001 ft | 461 kts | 205° |
| 2026-05-06 01:07 | 36.96378 | -88.34606 | 33999 ft | 460 kts | 205° |
| 2026-05-06 01:08 | 36.90566 | -88.37981 | 34000 ft | 461 kts | 206° |
| 2026-05-06 01:08 | 36.84798 | -88.41471 | 33999 ft | 461 kts | 206° |
| 2026-05-06 01:09 | 36.79067 | -88.44945 | 34000 ft | 461 kts | 206° |
| 2026-05-06 01:09 | 36.73300 | -88.48443 | 33998 ft | 461 kts | 206° |
| 2026-05-06 01:10 | 36.67538 | -88.51939 | 33964 ft | 459 kts | 206° |
| 2026-05-06 01:10 | 36.64691 | -88.53668 | 33524 ft | 451 kts | 206° |
| 2026-05-06 01:10 | 36.61897 | -88.55327 | 33190 ft | 438 kts | 205° |
| 2026-05-06 01:10 | 36.59167 | -88.56915 | 32903 ft | 426 kts | 205° |
| 2026-05-06 01:11 | 36.56516 | -88.58455 | 32542 ft | 416 kts | 205° |
| 2026-05-06 01:11 | 36.53909 | -88.59970 | 31977 ft | 412 kts | 205° |
| 2026-05-06 01:11 | 36.51328 | -88.61470 | 31532 ft | 405 kts | 205° |
| 2026-05-06 01:11 | 36.48803 | -88.62938 | 31266 ft | 394 kts | 205° |
| 2026-05-06 01:12 | 36.46351 | -88.64363 | 31029 ft | 383 kts | 205° |
| 2026-05-06 01:12 | 36.44002 | -88.65729 | 30811 ft | 372 kts | 205° |
| 2026-05-06 01:12 | 36.41693 | -88.67072 | 30561 ft | 362 kts | 205° |
| 2026-05-06 01:12 | 36.39423 | -88.68394 | 30177 ft | 357 kts | 205° |
| 2026-05-06 01:13 | 36.37178 | -88.69700 | 29703 ft | 355 kts | 205° |
| 2026-05-06 01:13 | 36.34947 | -88.70999 | 29202 ft | 354 kts | 205° |
| 2026-05-06 01:13 | 36.32726 | -88.72292 | 28741 ft | 351 kts | 205° |
| 2026-05-06 01:13 | 36.30520 | -88.73577 | 28286 ft | 349 kts | 205° |
| 2026-05-06 01:14 | 36.26160 | -88.76117 | 27397 ft | 344 kts | 205° |
| 2026-05-06 01:14 | 36.24003 | -88.77373 | 26953 ft | 341 kts | 205° |
| 2026-05-06 01:14 | 36.21859 | -88.78623 | 26518 ft | 339 kts | 205° |
| 2026-05-06 01:15 | 36.19731 | -88.79864 | 26085 ft | 336 kts | 205° |
| 2026-05-06 01:15 | 36.17619 | -88.81095 | 25654 ft | 334 kts | 205° |
| 2026-05-06 01:15 | 36.15516 | -88.82321 | 25225 ft | 332 kts | 205° |
| 2026-05-06 01:15 | 36.13443 | -88.83530 | 24874 ft | 327 kts | 205° |
| 2026-05-06 01:16 | 36.11400 | -88.84722 | 24524 ft | 322 kts | 205° |
| 2026-05-06 01:16 | 36.09383 | -88.85899 | 24133 ft | 319 kts | 205° |
| 2026-05-06 01:16 | 36.07407 | -88.87053 | 23733 ft | 317 kts | 205° |
| 2026-05-06 01:16 | 36.05417 | -88.88214 | 23320 ft | 315 kts | 205° |
| 2026-05-06 01:17 | 36.03444 | -88.89366 | 22901 ft | 313 kts | 205° |
| 2026-05-06 01:17 | 36.01484 | -88.90510 | 22480 ft | 311 kts | 205° |
| 2026-05-06 01:17 | 35.99538 | -88.91647 | 22077 ft | 309 kts | 205° |
| 2026-05-06 01:17 | 35.97604 | -88.92777 | 21656 ft | 306 kts | 206° |
| 2026-05-06 01:18 | 35.95679 | -88.93901 | 21303 ft | 304 kts | 206° |
| 2026-05-06 01:18 | 35.93771 | -88.95016 | 21204 ft | 304 kts | 206° |
| 2026-05-06 01:18 | 35.91859 | -88.96134 | 21200 ft | 304 kts | 206° |
| 2026-05-06 01:18 | 35.89950 | -88.97249 | 21150 ft | 303 kts | 206° |
| 2026-05-06 01:19 | 35.88047 | -88.98362 | 20730 ft | 302 kts | 206° |
| 2026-05-06 01:19 | 35.86142 | -88.99476 | 20209 ft | 304 kts | 206° |
| 2026-05-06 01:19 | 35.84235 | -89.00591 | 19730 ft | 303 kts | 206° |
| 2026-05-06 01:19 | 35.82333 | -89.01704 | 19293 ft | 301 kts | 206° |
| 2026-05-06 01:20 | 35.80441 | -89.02811 | 18855 ft | 299 kts | 206° |
| 2026-05-06 01:20 | 35.78563 | -89.03910 | 18423 ft | 297 kts | 206° |
| 2026-05-06 01:20 | 35.76701 | -89.04998 | 17993 ft | 295 kts | 205° |
| 2026-05-06 01:20 | 35.74909 | -89.06151 | 17560 ft | 293 kts | 216° |
| 2026-05-06 01:21 | 35.73384 | -89.07789 | 17329 ft | 290 kts | 225° |
| 2026-05-06 01:21 | 35.71936 | -89.09577 | 17300 ft | 291 kts | 225° |
| 2026-05-06 01:21 | 35.70533 | -89.11330 | 17300 ft | 291 kts | 226° |
| 2026-05-06 01:21 | 35.69111 | -89.13109 | 17300 ft | 291 kts | 226° |
| 2026-05-06 01:22 | 35.67688 | -89.14885 | 17300 ft | 291 kts | 225° |
| 2026-05-06 01:22 | 35.66229 | -89.16616 | 17300 ft | 291 kts | 224° |
| 2026-05-06 01:22 | 35.64759 | -89.18333 | 17300 ft | 291 kts | 224° |
| 2026-05-06 01:22 | 35.63293 | -89.20053 | 17300 ft | 291 kts | 224° |
| 2026-05-06 01:23 | 35.61845 | -89.21795 | 17300 ft | 291 kts | 225° |
| 2026-05-06 01:23 | 35.60416 | -89.23565 | 17301 ft | 291 kts | 226° |
| 2026-05-06 01:23 | 35.59013 | -89.25359 | 17301 ft | 291 kts | 227° |
| 2026-05-06 01:23 | 35.57637 | -89.27178 | 17296 ft | 287 kts | 228° |
| 2026-05-06 01:24 | 35.56345 | -89.28950 | 17255 ft | 271 kts | 229° |
| 2026-05-06 01:24 | 35.55144 | -89.30663 | 17182 ft | 257 kts | 230° |
| 2026-05-06 01:24 | 35.53989 | -89.32390 | 17145 ft | 275 kts | 231° |
| 2026-05-06 01:24 | 35.52798 | -89.34256 | 17136 ft | 275 kts | 233° |
| 2026-05-06 01:25 | 35.51594 | -89.36245 | 17180 ft | 302 kts | 234° |
| 2026-05-06 01:25 | 35.50308 | -89.38479 | 17277 ft | 337 kts | 236° |
| 2026-05-06 01:25 | 35.48953 | -89.40953 | 17423 ft | 350 kts | 237° |
| 2026-05-06 01:25 | 35.47667 | -89.43354 | 17249 ft | 333 kts | 238° |
| 2026-05-06 01:26 | 35.46643 | -89.45880 | 17047 ft | 329 kts | 252° |
| 2026-05-06 01:26 | 35.46045 | -89.48669 | 17178 ft | 354 kts | 257° |
| 2026-05-06 01:26 | 35.45480 | -89.51546 | 16694 ft | 339 kts | 254° |
| 2026-05-06 01:26 | 35.44749 | -89.54272 | 15533 ft | 336 kts | 250° |
| 2026-05-06 01:27 | 35.43913 | -89.56947 | 14593 ft | 331 kts | 249° |
| 2026-05-06 01:27 | 35.43107 | -89.59500 | 14045 ft | 312 kts | 249° |
| 2026-05-06 01:27 | 35.42327 | -89.61967 | 12919 ft | 313 kts | 249° |
| 2026-05-06 01:27 | 35.41531 | -89.64489 | 11509 ft | 321 kts | 249° |
| 2026-05-06 01:28 | 35.40717 | -89.67070 | 10106 ft | 326 kts | 249° |
| 2026-05-06 01:28 | 35.39902 | -89.69651 | 8940 ft | 321 kts | 249° |
| 2026-05-06 01:28 | 35.39106 | -89.72172 | 7934 ft | 311 kts | 249° |
| 2026-05-06 01:28 | 35.38349 | -89.74571 | 7051 ft | 300 kts | 249° |
| 2026-05-06 01:29 | 35.37613 | -89.76908 | 6237 ft | 288 kts | 249° |
| 2026-05-06 01:29 | 35.36895 | -89.79189 | 5412 ft | 279 kts | 249° |
| 2026-05-06 01:29 | 35.36209 | -89.81374 | 4662 ft | 271 kts | 249° |
| 2026-05-06 01:29 | 35.35561 | -89.83481 | 4108 ft | 258 kts | 250° |
| 2026-05-06 01:30 | 35.35024 | -89.85235 | 3662 ft | 248 kts | 248° |
| 2026-05-06 01:30 | 35.34325 | -89.87119 | 3157 ft | 239 kts | 243° |
| 2026-05-06 01:30 | 35.33494 | -89.88841 | 2631 ft | 232 kts | 235° |
| 2026-05-06 01:30 | 35.32696 | -89.90078 | 2210 ft | 228 kts | 228° |